| time (UTC) | temp F | wind direction | speed knots | gust knots | rain 1hr in | rain 24hr in | rain mn in | humidity % | barometer mb |
| 20260502183354 | 53 | 235 | 0.0 | 1.7 | 0.00 | 0.00 | 0.00 | 42 | 1014.5 |
| 20260502182850 | 53 | 294 | 0.0 | 1.7 | 0.00 | 0.00 | 0.00 | 42 | 1014.8 |
| 20260502182346 | 53 | 187 | 2.6 | 5.2 | 0.00 | 0.00 | 0.00 | 40 | 1014.7 |
| 20260502181842 | 53 | 258 | 1.7 | 5.2 | 0.00 | 0.00 | 0.00 | 44 | 1014.7 |
| 20260502181341 | 54 | 230 | 1.7 | 1.7 | 0.00 | 0.00 | 0.00 | 42 | 1014.8 |
| 20260502180839 | 54 | 106 | 0.0 | 5.2 | 0.00 | 0.00 | 0.00 | 52 | 1014.8 |
| 20260502180336 | 55 | 228 | 1.7 | 6.1 | 0.00 | 0.00 | 0.00 | 41 | 1014.8 |
| 20260502170254 | 54 | 275 | 1.7 | 2.6 | 0.00 | 0.00 | 0.00 | 48 | 1015.3 |
| 20260502164242 | 53 | 45 | 0.0 | 1.7 | 0.00 | 0.00 | 0.00 | 46 | 1015.2 |
| 20260502163737 | 53 | 282 | 0.9 | 3.5 | 0.00 | 0.00 | 0.00 | 41 | 1015.4 |
| 20260502163234 | 53 | 256 | 1.7 | 3.5 | 0.00 | 0.00 | 0.00 | 40 | 1015.3 |
| 20260502162731 | 54 | 268 | 0.0 | 2.6 | 0.00 | 0.00 | 0.00 | 43 | 1015.5 |
| 20260502162228 | 53 | 221 | 0.9 | 2.6 | 0.00 | 0.00 | 0.00 | 46 | 1015.1 |
| 20260502161725 | 53 | 275 | 0.0 | 2.6 | 0.00 | 0.00 | 0.00 | 42 | 1015.4 |
| 20260502161222 | 55 | 88 | 0.9 | 3.5 | 0.00 | 0.00 | 0.00 | 40 | 1015.4 |
| 20260502160720 | 54 | 289 | 0.0 | 1.7 | 0.00 | 0.00 | 0.00 | 46 | 1015.6 |
| 20260502160219 | 54 | 289 | 0.9 | 2.6 | 0.00 | 0.00 | 0.00 | 43 | 1015.5 |
| 20260502152143 | 55 | 338 | 0.0 | 3.5 | 0.00 | 0.00 | 0.00 | 52 | 1015.8 |
| 20260502151640 | 55 | 57 | 0.0 | 1.7 | 0.00 | 0.00 | 0.00 | 48 | 1015.6 |
| 20260502151137 | 55 | 57 | 0.0 | 2.6 | 0.00 | 0.00 | 0.00 | 50 | 1015.9 |
| 20260502150635 | 53 | 67 | 0.9 | 1.7 | 0.00 | 0.00 | 0.00 | 49 | 1015.5 |
| 20260502150131 | 54 | 272 | 1.7 | 1.7 | 0.00 | 0.00 | 0.00 | 49 | 1016.0 |
| 20260502130519 | 42 | 286 | 0.0 | 0.0 | 0.00 | 0.00 | 0.00 | 93 | 1016.0 |
| 20260502123503 | 39 | 286 | 0.0 | 0.0 | 0.00 | 0.00 | 0.00 | 99 | 1015.6 |
| 20260502122959 | 38 | 287 | 0.0 | 0.0 | 0.00 | 0.00 | 0.00 | 99 | 1015.7 |
| 20260502122455 | 38 | 286 | 0.0 | 0.0 | 0.00 | 0.00 | 0.00 | 99 | 1015.9 |
| 20260502121953 | 38 | 286 | 0.0 | 0.0 | 0.00 | 0.00 | 0.00 | 99 | 1016.0 |
| 20260502121450 | 37 | 287 | 0.0 | 0.0 | 0.00 | 0.00 | 0.00 | 99 | 1016.1 |
| 20260502120948 | 37 | 286 | 0.0 | 0.0 | 0.00 | 0.00 | 0.00 | 99 | 1015.9 |
| 20260502120444 | 37 | 286 | 0.0 | 0.0 | 0.00 | 0.00 | 0.00 | 99 | 1016.1 |
| 20260502115438 | 37 | 286 | 0.0 | 0.0 | 0.00 | 0.00 | 0.00 | 99 | 1015.9 |
| 20260502114934 | 36 | 286 | 0.0 | 0.0 | 0.00 | 0.00 | 0.00 | 99 | 1016.1 |
| 20260502114431 | 36 | 286 | 0.0 | 0.0 | 0.00 | 0.00 | 0.00 | 99 | 1016.0 |
| 20260502113928 | 36 | 286 | 0.0 | 0.0 | 0.00 | 0.00 | 0.00 | 99 | 1015.8 |
| 20260502113426 | 36 | 286 | 0.0 | 0.0 | 0.00 | 0.00 | 0.00 | 99 | 1016.0 |
| 20260502112925 | 36 | 286 | 0.0 | 0.0 | 0.00 | 0.00 | 0.00 | 99 | 1015.9 |
| 20260502112422 | 35 | 286 | 0.0 | 0.0 | 0.00 | 0.00 | 0.00 | 99 | 1015.8 |
| 20260502111919 | 35 | 286 | 0.0 | 0.0 | 0.00 | 0.00 | 0.00 | 99 | 1015.7 |
| 20260502111416 | 35 | 286 | 0.0 | 0.0 | 0.00 | 0.00 | 0.00 | 99 | 1016.0 |
| 20260502110914 | 35 | 286 | 0.0 | 0.0 | 0.00 | 0.00 | 0.00 | 99 | 1015.9 |
| 20260502110411 | 35 | 286 | 0.0 | 0.0 | 0.00 | 0.00 | 0.00 | 99 | 1015.4 |
| 20260502105908 | 34 | 286 | 0.0 | 0.0 | 0.00 | 0.00 | 0.00 | 99 | 1015.5 |
| 20260502105405 | 34 | 286 | 0.0 | 0.0 | 0.00 | 0.00 | 0.00 | 99 | 1015.5 |
| 20260502104903 | 34 | 286 | 0.0 | 0.0 | 0.00 | 0.00 | 0.00 | 99 | 1015.6 |
| 20260502104400 | 34 | 286 | 0.0 | 0.0 | 0.00 | 0.00 | 0.00 | 99 | 1015.5 |
| 20260502103857 | 34 | 286 | 0.0 | 0.0 | 0.00 | 0.00 | 0.00 | 99 | 1015.7 |
| 20260502103355 | 34 | 286 | 0.0 | 0.0 | 0.00 | 0.00 | 0.00 | 99 | 1015.6 |
| 20260502102852 | 34 | 286 | 0.0 | 0.0 | 0.00 | 0.00 | 0.00 | 99 | 1015.7 |
| 20260502102348 | 35 | 286 | 0.0 | 0.0 | 0.00 | 0.00 | 0.00 | 99 | 1016.1 |
| 20260502101846 | 35 | 286 | 0.0 | 0.0 | 0.00 | 0.00 | 0.00 | 99 | 1015.9 |
| 20260502101344 | 35 | 286 | 0.0 | 0.0 | 0.00 | 0.00 | 0.00 | 99 | 1016.0 |
| 20260502100842 | 35 | 286 | 0.0 | 0.0 | 0.00 | 0.00 | 0.00 | 99 | 1015.9 |
| 20260502100341 | 35 | 286 | 0.0 | 0.0 | 0.00 | 0.00 | 0.00 | 99 | 1016.0 |
| 20260502091315 | 35 | 286 | 0.0 | 0.0 | 0.00 | 0.00 | 0.00 | 99 | 1016.0 |
| 20260502090812 | 35 | 286 | 0.0 | 0.0 | 0.00 | 0.00 | 0.00 | 99 | 1016.0 |
| 20260502090309 | 35 | 286 | 0.0 | 0.0 | 0.00 | 0.00 | 0.00 | 99 | 1016.2 |
| 20260502071204 | 37 | 286 | 0.0 | 0.0 | 0.00 | 0.00 | 0.00 | 98 | 1015.5 |
| 20260502070702 | 37 | 286 | 0.0 | 0.0 | 0.00 | 0.00 | 0.00 | 97 | 1015.4 |
| 20260502070200 | 37 | 286 | 0.0 | 0.0 | 0.00 | 0.00 | 0.00 | 97 | 1015.6 |
| 20260502065658 | 38 | 286 | 0.0 | 0.0 | 0.00 | 0.00 | 0.00 | 97 | 1015.7 |
| 20260502065155 | 38 | 286 | 0.0 | 0.0 | 0.00 | 0.00 | 0.00 | 97 | 1015.7 |
| 20260502064654 | 38 | 286 | 0.0 | 0.0 | 0.00 | 0.00 | 0.00 | 97 | 1015.7 |
| 20260502064151 | 38 | 286 | 0.0 | 0.0 | 0.00 | 0.00 | 0.00 | 96 | 1015.6 |
| 20260502063649 | 38 | 286 | 0.0 | 0.0 | 0.00 | 0.00 | 0.00 | 96 | 1015.8 |
| 20260502063146 | 38 | 286 | 0.0 | 0.0 | 0.00 | 0.00 | 0.00 | 96 | 1015.7 |
| 20260502062643 | 38 | 286 | 0.0 | 0.0 | 0.00 | 0.00 | 0.00 | 96 | 1015.9 |
| 20260502062140 | 39 | 286 | 0.0 | 0.0 | 0.00 | 0.00 | 0.00 | 96 | 1015.8 |
| 20260502061639 | 39 | 286 | 0.0 | 0.0 | 0.00 | 0.00 | 0.00 | 95 | 1016.1 |
| 20260502061136 | 39 | 286 | 0.0 | 0.0 | 0.00 | 0.00 | 0.00 | 95 | 1016.1 |
| 20260502060631 | 39 | 286 | 0.0 | 0.0 | 0.00 | 0.00 | 0.00 | 94 | 1016.0 |
| 20260502060127 | 39 | 286 | 0.0 | 0.0 | 0.00 | 0.00 | 0.00 | 94 | 1016.1 |
| 20260502055626 | 40 | 286 | 0.0 | 0.0 | 0.00 | 0.00 | 0.00 | 94 | 1015.9 |
| 20260502055123 | 40 | 286 | 0.0 | 0.0 | 0.00 | 0.00 | 0.00 | 93 | 1015.9 |
| 20260502054622 | 40 | 286 | 0.0 | 0.0 | 0.00 | 0.00 | 0.00 | 93 | 1016.3 |
| 20260502054119 | 40 | 286 | 0.0 | 0.0 | 0.00 | 0.00 | 0.00 | 92 | 1016.1 |
| 20260502053616 | 41 | 286 | 0.0 | 0.0 | 0.00 | 0.00 | 0.00 | 92 | 1016.1 |
| 20260502053113 | 41 | 286 | 0.0 | 0.0 | 0.00 | 0.00 | 0.00 | 92 | 1015.8 |
| 20260502052612 | 41 | 286 | 0.0 | 0.0 | 0.00 | 0.00 | 0.00 | 91 | 1016.4 |
| 20260502052109 | 41 | 286 | 0.0 | 0.0 | 0.00 | 0.00 | 0.00 | 91 | 1016.2 |
| 20260502051607 | 42 | 286 | 0.0 | 0.0 | 0.00 | 0.00 | 0.00 | 90 | 1016.2 |
| 20260502051105 | 42 | 286 | 0.0 | 0.0 | 0.00 | 0.00 | 0.00 | 89 | 1016.5 |
| 20260502050600 | 42 | 286 | 0.0 | 0.0 | 0.00 | 0.00 | 0.00 | 89 | 1016.1 |
| 20260502050057 | 42 | 286 | 0.0 | 0.0 | 0.00 | 0.00 | 0.00 | 88 | 1016.1 |
| 20260502045554 | 43 | 286 | 0.0 | 0.0 | 0.00 | 0.00 | 0.00 | 87 | 1016.0 |
| 20260502045052 | 43 | 286 | 0.0 | 0.0 | 0.00 | 0.00 | 0.00 | 86 | 1016.1 |
| 20260502044548 | 43 | 286 | 0.0 | 0.0 | 0.00 | 0.00 | 0.00 | 86 | 1016.3 |
| 20260502044045 | 44 | 286 | 0.0 | 0.0 | 0.00 | 0.00 | 0.00 | 85 | 1016.2 |
| 20260502043543 | 44 | 286 | 0.0 | 0.0 | 0.00 | 0.00 | 0.00 | 83 | 1016.1 |
| 20260502043039 | 45 | 286 | 0.0 | 0.0 | 0.00 | 0.00 | 0.00 | 83 | 1016.1 |
| 20260502042539 | 45 | 286 | 0.0 | 0.0 | 0.00 | 0.00 | 0.00 | 82 | 1016.2 |
| 20260502042037 | 45 | 286 | 0.0 | 0.0 | 0.00 | 0.00 | 0.00 | 81 | 1016.0 |
| 20260502041534 | 46 | 286 | 0.0 | 0.0 | 0.00 | 0.00 | 0.00 | 80 | 1016.2 |
| 20260502041031 | 46 | 286 | 0.0 | 0.0 | 0.00 | 0.00 | 0.00 | 80 | 1016.0 |
| 20260502040528 | 46 | 286 | 0.0 | 0.0 | 0.00 | 0.00 | 0.00 | 78 | 1016.3 |
| 20260502040025 | 46 | 286 | 0.0 | 0.0 | 0.00 | 0.00 | 0.00 | 78 | 1016.0 |
| 20260502035521 | 47 | 286 | 0.0 | 0.0 | 0.00 | 0.00 | 0.00 | 77 | 1016.1 |
| 20260502035018 | 47 | 286 | 0.0 | 0.0 | 0.00 | 0.00 | 0.00 | 76 | 1016.0 |
| 20260502034516 | 47 | 286 | 0.0 | 0.0 | 0.00 | 0.00 | 0.00 | 74 | 1016.1 |
| 20260502034015 | 47 | 286 | 0.0 | 0.0 | 0.00 | 0.00 | 0.00 | 72 | 1016.1 |
| 20260502033512 | 47 | 286 | 0.0 | 0.0 | 0.00 | 0.00 | 0.00 | 72 | 1015.8 |
| 20260502033009 | 48 | 286 | 0.0 | 0.0 | 0.00 | 0.00 | 0.00 | 73 | 1016.0 |
| 20260502032505 | 48 | 287 | 0.0 | 0.0 | 0.00 | 0.00 | 0.00 | 71 | 1016.3 |
| 20260502032002 | 48 | 287 | 0.0 | 0.0 | 0.00 | 0.00 | 0.00 | 72 | 1016.1 |
| 20260502031500 | 48 | 287 | 0.0 | 0.0 | 0.00 | 0.00 | 0.00 | 70 | 1016.3 |
| 20260502030958 | 48 | 287 | 0.0 | 0.0 | 0.00 | 0.00 | 0.00 | 68 | 1016.1 |
| 20260502030456 | 48 | 287 | 0.0 | 0.0 | 0.00 | 0.00 | 0.00 | 68 | 1016.0 |
| 20260502025954 | 49 | 287 | 0.0 | 0.9 | 0.00 | 0.00 | 0.00 | 68 | 1015.9 |
| 20260502025450 | 49 | 287 | 0.0 | 0.0 | 0.00 | 0.00 | 0.00 | 68 | 1016.0 |
| 20260502024948 | 49 | 287 | 0.0 | 0.9 | 0.00 | 0.00 | 0.00 | 66 | 1015.9 |
| 20260502024446 | 49 | 287 | 0.0 | 0.0 | 0.00 | 0.00 | 0.00 | 67 | 1015.8 |
| 20260502023944 | 49 | 287 | 0.0 | 0.9 | 0.00 | 0.00 | 0.00 | 68 | 1016.1 |
| 20260502023441 | 49 | 287 | 0.0 | 0.0 | 0.00 | 0.00 | 0.00 | 69 | 1016.0 |
| 20260502022939 | 49 | 287 | 0.0 | 0.0 | 0.00 | 0.00 | 0.00 | 69 | 1016.1 |
| 20260502022435 | 50 | 287 | 0.0 | 0.9 | 0.00 | 0.00 | 0.00 | 68 | 1016.0 |
| 20260502021932 | 50 | 287 | 0.0 | 0.0 | 0.00 | 0.00 | 0.00 | 66 | 1015.8 |
| 20260502021430 | 50 | 286 | 0.9 | 0.9 | 0.00 | 0.00 | 0.00 | 65 | 1015.6 |
| 20260502020927 | 50 | 348 | 0.0 | 0.9 | 0.00 | 0.00 | 0.00 | 66 | 1015.4 |
| 20260502020425 | 50 | 340 | 2.6 | 5.2 | 0.00 | 0.00 | 0.00 | 66 | 1015.5 |
| 20260502015921 | 50 | 262 | 0.0 | 0.0 | 0.00 | 0.00 | 0.00 | 72 | 1015.3 |
| 20260502015419 | 51 | 261 | 0.0 | 0.0 | 0.00 | 0.00 | 0.00 | 68 | 1015.2 |
| 20260502014915 | 51 | 261 | 0.0 | 0.0 | 0.00 | 0.00 | 0.00 | 72 | 1014.9 |
| 20260502014412 | 51 | 261 | 0.0 | 0.0 | 0.00 | 0.00 | 0.00 | 73 | 1014.8 |
| 20260502013908 | 51 | 261 | 0.0 | 0.0 | 0.00 | 0.00 | 0.00 | 73 | 1014.9 |
| 20260502013404 | 51 | 261 | 0.0 | 1.7 | 0.00 | 0.00 | 0.00 | 71 | 1015.0 |
| 20260502012901 | 51 | 261 | 1.7 | 3.5 | 0.00 | 0.00 | 0.00 | 72 | 1014.6 |
| 20260502012359 | 52 | 32 | 0.0 | 0.9 | 0.00 | 0.00 | 0.00 | 73 | 1014.6 |
| 20260502011856 | 51 | 304 | 0.0 | 0.9 | 0.00 | 0.00 | 0.00 | 75 | 1014.4 |
| 20260502011352 | 51 | 296 | 0.0 | 0.0 | 0.00 | 0.00 | 0.00 | 82 | 1014.2 |
| 20260502010849 | 51 | 296 | 0.0 | 1.7 | 0.00 | 0.00 | 0.00 | 76 | 1014.3 |
| 20260502010346 | 51 | 10 | 0.0 | 0.0 | 0.00 | 0.00 | 0.00 | 84 | 1014.1 |
| 20260502005842 | 51 | 10 | 0.0 | 0.0 | 0.00 | 0.00 | 0.00 | 83 | 1013.9 |
| 20260502005340 | 51 | 10 | 0.0 | 0.0 | 0.00 | 0.00 | 0.00 | 82 | 1013.9 |
| 20260502004837 | 51 | 10 | 0.0 | 0.0 | 0.00 | 0.00 | 0.00 | 82 | 1013.7 |
| 20260502004333 | 51 | 10 | 0.0 | 0.0 | 0.00 | 0.00 | 0.00 | 82 | 1013.6 |
| 20260502003831 | 51 | 10 | 0.0 | 0.0 | 0.00 | 0.00 | 0.00 | 81 | 1013.6 |
| 20260502003328 | 51 | 10 | 0.0 | 0.0 | 0.00 | 0.00 | 0.00 | 81 | 1013.6 |
| 20260502002824 | 51 | 10 | 0.0 | 0.0 | 0.00 | 0.00 | 0.00 | 80 | 1013.7 |
| 20260502002322 | 51 | 10 | 0.0 | 0.0 | 0.00 | 0.00 | 0.00 | 80 | 1013.6 |
| 20260502001819 | 52 | 10 | 0.0 | 0.0 | 0.00 | 0.00 | 0.00 | 78 | 1013.5 |
| 20260502001317 | 52 | 10 | 0.0 | 0.0 | 0.00 | 0.00 | 0.00 | 78 | 1013.3 |
| 20260502000814 | 52 | 10 | 0.0 | 0.0 | 0.00 | 0.00 | 0.00 | 76 | 1013.4 |
| 20260502000312 | 52 | 10 | 0.0 | 0.0 | 0.00 | 0.00 | 0.00 | 75 | 1013.0 |
| 20260501235808 | 52 | 10 | 0.0 | 0.0 | 0.00 | 0.00 | 0.00 | 75 | 1012.8 |
| 20260501235305 | 52 | 10 | 0.0 | 0.0 | 0.00 | 0.00 | 0.00 | 75 | 1012.6 |
| 20260501234759 | 53 | 10 | 0.0 | 0.0 | 0.00 | 0.00 | 0.00 | 75 | 1012.3 |
| 20260501234257 | 53 | 10 | 0.0 | 0.0 | 0.00 | 0.00 | 0.00 | 74 | 1012.3 |
| 20260501233755 | 53 | 10 | 0.0 | 0.0 | 0.00 | 0.00 | 0.00 | 73 | 1012.4 |
| 20260501233252 | 53 | 10 | 0.0 | 0.0 | 0.00 | 0.00 | 0.00 | 74 | 1012.2 |
| 20260501232747 | 53 | 10 | 0.0 | 0.0 | 0.00 | 0.00 | 0.00 | 72 | 1012.2 |
| 20260501232245 | 53 | 10 | 0.0 | 0.0 | 0.00 | 0.00 | 0.00 | 69 | 1012.3 |
| 20260501231742 | 53 | 10 | 0.0 | 0.0 | 0.00 | 0.00 | 0.00 | 70 | 1012.4 |
| 20260501231240 | 53 | 10 | 0.0 | 1.7 | 0.00 | 0.00 | 0.00 | 68 | 1012.4 |
| 20260501230738 | 54 | 43 | 0.0 | 5.2 | 0.00 | 0.00 | 0.00 | 67 | 1012.5 |
| 20260501230237 | 54 | 358 | 2.6 | 3.5 | 0.00 | 0.00 | 0.00 | 66 | 1012.5 |
| 20260501225734 | 54 | 359 | 0.0 | 0.9 | 0.00 | 0.00 | 0.00 | 66 | 1012.5 |
| 20260501225231 | 54 | 327 | 0.0 | 1.7 | 0.00 | 0.00 | 0.00 | 65 | 1012.4 |
| 20260501224727 | 55 | 313 | 0.9 | 5.2 | 0.00 | 0.00 | 0.00 | 65 | 1012.3 |
| 20260501224225 | 55 | 265 | 0.9 | 2.6 | 0.00 | 0.00 | 0.00 | 67 | 1012.2 |
| 20260501223721 | 55 | 352 | 0.0 | 2.6 | 0.00 | 0.00 | 0.00 | 62 | 1012.2 |
| 20260501223218 | 55 | 347 | 1.7 | 5.2 | 0.00 | 0.00 | 0.00 | 63 | 1012.1 |
| 20260501222714 | 56 | 288 | 1.7 | 2.6 | 0.00 | 0.00 | 0.00 | 64 | 1012.3 |
| 20260501222211 | 56 | 330 | 1.7 | 6.1 | 0.00 | 0.00 | 0.00 | 62 | 1012.0 |
| 20260501221707 | 56 | 258 | 0.9 | 2.6 | 0.00 | 0.00 | 0.00 | 63 | 1012.0 |
| 20260501221205 | 56 | 295 | 0.9 | 3.5 | 0.00 | 0.00 | 0.00 | 64 | 1011.7 |
| 20260501220702 | 57 | 300 | 0.9 | 1.7 | 0.00 | 0.00 | 0.00 | 63 | 1011.9 |
| 20260501220159 | 57 | 280 | 0.9 | 1.7 | 0.00 | 0.00 | 0.00 | 62 | 1011.7 |
| 20260501215656 | 58 | 274 | 0.0 | 2.6 | 0.00 | 0.00 | 0.00 | 65 | 1012.0 |
| 20260501215151 | 57 | 233 | 1.7 | 1.7 | 0.00 | 0.00 | 0.00 | 65 | 1011.7 |
| 20260501214647 | 57 | 215 | 1.7 | 5.2 | 0.00 | 0.00 | 0.00 | 65 | 1011.8 |
| 20260501214142 | 57 | 235 | 1.7 | 3.5 | 0.00 | 0.00 | 0.00 | 65 | 1011.6 |
| 20260501213640 | 57 | 232 | 0.9 | 2.6 | 0.00 | 0.00 | 0.00 | 65 | 1011.7 |
| 20260501213135 | 58 | 240 | 1.7 | 3.5 | 0.00 | 0.00 | 0.00 | 66 | 1011.6 |
| 20260501212632 | 58 | 6 | 0.0 | 2.6 | 0.00 | 0.00 | 0.00 | 69 | 1011.6 |
| 20260501212129 | 58 | 263 | 1.7 | 2.6 | 0.00 | 0.00 | 0.00 | 66 | 1011.5 |
| 20260501211625 | 58 | 256 | 0.9 | 3.5 | 0.00 | 0.00 | 0.00 | 66 | 1011.3 |
| 20260501211124 | 58 | 353 | 0.0 | 0.9 | 0.00 | 0.00 | 0.00 | 67 | 1011.3 |
| 20260501210620 | 58 | 238 | 0.9 | 1.7 | 0.00 | 0.00 | 0.00 | 64 | 1011.2 |
| 20260501210116 | 58 | 32 | 1.7 | 3.5 | 0.00 | 0.00 | 0.00 | 63 | 1011.3 |
| 20260501205613 | 59 | 293 | 0.9 | 1.7 | 0.00 | 0.00 | 0.00 | 62 | 1011.3 |
| 20260501205111 | 59 | 245 | 0.0 | 2.6 | 0.00 | 0.00 | 0.00 | 64 | 1011.0 |
| 20260501204607 | 59 | 248 | 1.7 | 1.7 | 0.00 | 0.00 | 0.00 | 58 | 1011.0 |
| 20260501204103 | 59 | 268 | 0.9 | 2.6 | 0.00 | 0.00 | 0.00 | 57 | 1011.0 |
| 20260501203600 | 60 | 253 | 0.9 | 5.2 | 0.00 | 0.00 | 0.00 | 56 | 1010.8 |
| 20260501203057 | 60 | 328 | 0.9 | 7.0 | 0.00 | 0.00 | 0.00 | 55 | 1010.5 |
| 20260501202554 | 61 | 262 | 0.0 | 1.7 | 0.00 | 0.00 | 0.00 | 53 | 1010.5 |
| 20260501202051 | 62 | 329 | 1.7 | 2.6 | 0.00 | 0.00 | 0.00 | 52 | 1010.3 |
| 20260501201548 | 62 | 353 | 2.6 | 2.6 | 0.00 | 0.00 | 0.00 | 48 | 1010.6 |
| 20260501201044 | 62 | 357 | 0.0 | 0.9 | 0.00 | 0.00 | 0.00 | 52 | 1010.3 |
| 20260501200541 | 62 | 357 | 0.9 | 3.5 | 0.00 | 0.00 | 0.00 | 50 | 1010.3 |
| 20260501200039 | 62 | 270 | 0.9 | 2.6 | 0.00 | 0.00 | 0.00 | 46 | 1010.2 |
| 20260501195536 | 63 | 243 | 0.9 | 2.6 | 0.00 | 0.00 | 0.00 | 45 | 1010.1 |
| 20260501195031 | 63 | 13 | 1.7 | 5.2 | 0.00 | 0.00 | 0.00 | 44 | 1010.1 |
| 20260501194527 | 63 | 272 | 0.9 | 1.7 | 0.00 | 0.00 | 0.00 | 47 | 1010.2 |
| 20260501194023 | 63 | 254 | 1.7 | 8.7 | 0.00 | 0.00 | 0.00 | 42 | 1010.4 |
| 20260501193521 | 64 | 294 | 1.7 | 2.6 | 0.00 | 0.00 | 0.00 | 41 | 1010.2 |
| 20260501193019 | 64 | 266 | 0.9 | 1.7 | 0.00 | 0.00 | 0.00 | 42 | 1010.1 |
| 20260501192516 | 64 | 288 | 0.9 | 2.6 | 0.00 | 0.00 | 0.00 | 40 | 1010.2 |
| 20260501192014 | 65 | 268 | 0.0 | 1.7 | 0.00 | 0.00 | 0.00 | 41 | 1010.2 |
| 20260501191510 | 65 | 292 | 0.9 | 3.5 | 0.00 | 0.00 | 0.00 | 39 | 1010.1 |
| 20260501191008 | 66 | 249 | 3.5 | 3.5 | 0.00 | 0.00 | 0.00 | 38 | 1010.2 |
| 20260501190503 | 66 | 63 | 0.0 | 0.9 | 0.00 | 0.00 | 0.00 | 38 | 1010.1 |
| 20260501185958 | 66 | 255 | 1.7 | 5.2 | 0.00 | 0.00 | 0.00 | 41 | 1010.2 |
| 20260501185454 | 67 | 62 | 0.0 | 1.7 | 0.00 | 0.00 | 0.00 | 37 | 1010.2 |
| 20260501184951 | 66 | 137 | 0.0 | 1.7 | 0.00 | 0.00 | 0.00 | 42 | 1010.2 |
| 20260501184447 | 66 | 233 | 0.9 | 3.5 | 0.00 | 0.00 | 0.00 | 36 | 1010.1 |
| 20260501183942 | 66 | 235 | 1.7 | 2.6 | 0.00 | 0.00 | 0.00 | 37 | 1010.2 |